sensor_id;sensor_type;location;lat;lon;timestamp;P1;durP1;ratioP1;P2;durP2;ratioP2
67776;SDS011;54576;52.020;5.536;2022-07-30T00:02:12;12.05;;;5.00;;
67776;SDS011;54576;52.020;5.536;2022-07-30T00:04:37;9.75;;;4.47;;
67776;SDS011;54576;52.020;5.536;2022-07-30T00:07:03;24.00;;;4.25;;
67776;SDS011;54576;52.020;5.536;2022-07-30T00:09:29;14.00;;;4.68;;
67776;SDS011;54576;52.020;5.536;2022-07-30T00:11:55;12.43;;;4.57;;
67776;SDS011;54576;52.020;5.536;2022-07-30T00:14:20;7.88;;;4.43;;
67776;SDS011;54576;52.020;5.536;2022-07-30T00:16:46;7.85;;;4.10;;
67776;SDS011;54576;52.020;5.536;2022-07-30T00:19:11;16.17;;;4.63;;
67776;SDS011;54576;52.020;5.536;2022-07-30T00:21:37;12.63;;;4.30;;
67776;SDS011;54576;52.020;5.536;2022-07-30T00:24:03;9.77;;;3.90;;
67776;SDS011;54576;52.020;5.536;2022-07-30T00:26:29;9.55;;;4.00;;
67776;SDS011;54576;52.020;5.536;2022-07-30T00:28:55;6.97;;;3.97;;
67776;SDS011;54576;52.020;5.536;2022-07-30T00:31:20;13.38;;;4.25;;
67776;SDS011;54576;52.020;5.536;2022-07-30T00:33:46;6.75;;;4.00;;
67776;SDS011;54576;52.020;5.536;2022-07-30T00:36:11;15.63;;;3.95;;
67776;SDS011;54576;52.020;5.536;2022-07-30T00:38:37;11.13;;;4.30;;
67776;SDS011;54576;52.020;5.536;2022-07-30T00:41:02;10.30;;;4.30;;
67776;SDS011;54576;52.020;5.536;2022-07-30T00:43:28;16.25;;;4.55;;
67776;SDS011;54576;52.020;5.536;2022-07-30T00:45:54;11.02;;;3.95;;
67776;SDS011;54576;52.020;5.536;2022-07-30T00:48:19;22.50;;;4.20;;
67776;SDS011;54576;52.020;5.536;2022-07-30T00:50:45;10.27;;;3.88;;
67776;SDS011;54576;52.020;5.536;2022-07-30T00:53:10;14.02;;;4.28;;
67776;SDS011;54576;52.020;5.536;2022-07-30T00:55:36;14.70;;;3.35;;
67776;SDS011;54576;52.020;5.536;2022-07-30T00:58:02;14.57;;;3.80;;
67776;SDS011;54576;52.020;5.536;2022-07-30T01:00:27;16.38;;;3.83;;
67776;SDS011;54576;52.020;5.536;2022-07-30T01:02:53;11.45;;;4.00;;
67776;SDS011;54576;52.020;5.536;2022-07-30T01:05:18;10.75;;;3.75;;
67776;SDS011;54576;52.020;5.536;2022-07-30T01:07:44;10.30;;;3.63;;
67776;SDS011;54576;52.020;5.536;2022-07-30T01:10:11;9.73;;;4.07;;
67776;SDS011;54576;52.020;5.536;2022-07-30T01:12:41;11.60;;;3.72;;
67776;SDS011;54576;52.020;5.536;2022-07-30T01:15:08;11.13;;;4.03;;
67776;SDS011;54576;52.020;5.536;2022-07-30T01:17:34;13.77;;;4.18;;
67776;SDS011;54576;52.020;5.536;2022-07-30T01:20:03;9.45;;;3.92;;
67776;SDS011;54576;52.020;5.536;2022-07-30T01:22:32;17.52;;;5.05;;
67776;SDS011;54576;52.020;5.536;2022-07-30T01:27:57;14.65;;;4.45;;
67776;SDS011;54576;52.020;5.536;2022-07-30T01:30:28;13.00;;;4.05;;
67776;SDS011;54576;52.020;5.536;2022-07-30T01:32:56;14.25;;;3.88;;
67776;SDS011;54576;52.020;5.536;2022-07-30T01:35:24;8.35;;;3.55;;
67776;SDS011;54576;52.020;5.536;2022-07-30T01:37:51;13.50;;;3.83;;
67776;SDS011;54576;52.020;5.536;2022-07-30T01:40:18;11.10;;;3.45;;
67776;SDS011;54576;52.020;5.536;2022-07-30T01:42:45;7.80;;;3.85;;
67776;SDS011;54576;52.020;5.536;2022-07-30T01:45:15;19.40;;;4.60;;
67776;SDS011;54576;52.020;5.536;2022-07-30T01:47:42;11.05;;;4.13;;
67776;SDS011;54576;52.020;5.536;2022-07-30T01:50:10;12.20;;;3.85;;
67776;SDS011;54576;52.020;5.536;2022-07-30T01:55:05;20.73;;;4.65;;
67776;SDS011;54576;52.020;5.536;2022-07-30T01:57:34;10.18;;;4.15;;
67776;SDS011;54576;52.020;5.536;2022-07-30T02:00:03;5.65;;;3.45;;
67776;SDS011;54576;52.020;5.536;2022-07-30T02:02:30;11.25;;;3.92;;
67776;SDS011;54576;52.020;5.536;2022-07-30T02:04:58;10.57;;;4.90;;
67776;SDS011;54576;52.020;5.536;2022-07-30T02:07:31;12.57;;;4.65;;
67776;SDS011;54576;52.020;5.536;2022-07-30T02:10:24;15.65;;;4.72;;
67776;SDS011;54576;52.020;5.536;2022-07-30T02:12:55;11.43;;;4.70;;
67776;SDS011;54576;52.020;5.536;2022-07-30T02:15:28;18.98;;;4.65;;
67776;SDS011;54576;52.020;5.536;2022-07-30T02:18:10;12.05;;;4.88;;
67776;SDS011;54576;52.020;5.536;2022-07-30T02:20:43;13.65;;;5.38;;
67776;SDS011;54576;52.020;5.536;2022-07-30T02:23:11;19.08;;;5.00;;
67776;SDS011;54576;52.020;5.536;2022-07-30T02:25:41;18.50;;;5.43;;
67776;SDS011;54576;52.020;5.536;2022-07-30T02:28:13;12.18;;;4.53;;
67776;SDS011;54576;52.020;5.536;2022-07-30T02:30:48;13.83;;;5.53;;
67776;SDS011;54576;52.020;5.536;2022-07-30T02:33:18;13.25;;;5.00;;
67776;SDS011;54576;52.020;5.536;2022-07-30T02:35:47;9.45;;;4.43;;
67776;SDS011;54576;52.020;5.536;2022-07-30T02:38:14;15.95;;;5.25;;
67776;SDS011;54576;52.020;5.536;2022-07-30T02:40:42;15.40;;;5.70;;
67776;SDS011;54576;52.020;5.536;2022-07-30T02:43:08;11.88;;;4.60;;
67776;SDS011;54576;52.020;5.536;2022-07-30T02:45:35;19.02;;;5.90;;
67776;SDS011;54576;52.020;5.536;2022-07-30T02:48:03;9.98;;;5.45;;
67776;SDS011;54576;52.020;5.536;2022-07-30T02:50:31;15.40;;;5.13;;
67776;SDS011;54576;52.020;5.536;2022-07-30T02:52:58;12.93;;;5.80;;
67776;SDS011;54576;52.020;5.536;2022-07-30T02:55:25;15.55;;;5.47;;
67776;SDS011;54576;52.020;5.536;2022-07-30T02:57:52;12.27;;;5.88;;
67776;SDS011;54576;52.020;5.536;2022-07-30T03:00:20;12.40;;;5.40;;
67776;SDS011;54576;52.020;5.536;2022-07-30T03:02:48;15.40;;;6.30;;
67776;SDS011;54576;52.020;5.536;2022-07-30T03:05:16;16.67;;;5.88;;
67776;SDS011;54576;52.020;5.536;2022-07-30T03:07:42;18.67;;;5.57;;
67776;SDS011;54576;52.020;5.536;2022-07-30T03:10:09;17.75;;;5.70;;
67776;SDS011;54576;52.020;5.536;2022-07-30T03:12:37;14.60;;;5.50;;
67776;SDS011;54576;52.020;5.536;2022-07-30T03:15:04;13.07;;;5.22;;
67776;SDS011;54576;52.020;5.536;2022-07-30T03:17:31;11.40;;;5.38;;
67776;SDS011;54576;52.020;5.536;2022-07-30T03:20:02;16.13;;;5.28;;
67776;SDS011;54576;52.020;5.536;2022-07-30T03:22:34;12.48;;;5.90;;
67776;SDS011;54576;52.020;5.536;2022-07-30T03:25:04;10.63;;;5.88;;
67776;SDS011;54576;52.020;5.536;2022-07-30T03:27:31;12.98;;;5.60;;
67776;SDS011;54576;52.020;5.536;2022-07-30T03:29:58;17.73;;;5.93;;
67776;SDS011;54576;52.020;5.536;2022-07-30T03:32:26;18.17;;;5.75;;
67776;SDS011;54576;52.020;5.536;2022-07-30T03:34:52;10.45;;;5.30;;
67776;SDS011;54576;52.020;5.536;2022-07-30T03:37:18;14.40;;;5.75;;
67776;SDS011;54576;52.020;5.536;2022-07-30T03:39:44;14.25;;;6.68;;
67776;SDS011;54576;52.020;5.536;2022-07-30T03:42:11;11.25;;;5.72;;
67776;SDS011;54576;52.020;5.536;2022-07-30T03:44:37;14.80;;;5.88;;
67776;SDS011;54576;52.020;5.536;2022-07-30T03:47:04;16.10;;;5.78;;
67776;SDS011;54576;52.020;5.536;2022-07-30T03:49:31;14.43;;;6.05;;
67776;SDS011;54576;52.020;5.536;2022-07-30T03:51:57;14.05;;;5.88;;
67776;SDS011;54576;52.020;5.536;2022-07-30T03:54:23;12.23;;;5.95;;
67776;SDS011;54576;52.020;5.536;2022-07-30T03:56:49;12.98;;;5.57;;
67776;SDS011;54576;52.020;5.536;2022-07-30T03:59:15;15.20;;;5.90;;
67776;SDS011;54576;52.020;5.536;2022-07-30T04:01:41;10.27;;;5.57;;
67776;SDS011;54576;52.020;5.536;2022-07-30T04:04:07;11.25;;;6.00;;
67776;SDS011;54576;52.020;5.536;2022-07-30T04:06:34;9.23;;;5.10;;
67776;SDS011;54576;52.020;5.536;2022-07-30T04:09:07;14.95;;;6.40;;
67776;SDS011;54576;52.020;5.536;2022-07-30T04:11:33;12.90;;;5.70;;
67776;SDS011;54576;52.020;5.536;2022-07-30T04:13:59;13.73;;;4.90;;
67776;SDS011;54576;52.020;5.536;2022-07-30T04:16:30;10.80;;;5.28;;
67776;SDS011;54576;52.020;5.536;2022-07-30T04:19:17;13.30;;;5.95;;
67776;SDS011;54576;52.020;5.536;2022-07-30T04:21:46;12.32;;;5.78;;
67776;SDS011;54576;52.020;5.536;2022-07-30T04:24:14;14.60;;;5.47;;
67776;SDS011;54576;52.020;5.536;2022-07-30T04:26:41;15.18;;;5.32;;
67776;SDS011;54576;52.020;5.536;2022-07-30T04:29:07;22.42;;;5.60;;
67776;SDS011;54576;52.020;5.536;2022-07-30T04:31:34;19.73;;;5.20;;
67776;SDS011;54576;52.020;5.536;2022-07-30T04:34:03;12.80;;;5.45;;
67776;SDS011;54576;52.020;5.536;2022-07-30T04:38:56;19.20;;;5.72;;
67776;SDS011;54576;52.020;5.536;2022-07-30T04:41:22;14.80;;;5.30;;
67776;SDS011;54576;52.020;5.536;2022-07-30T04:43:47;11.00;;;5.60;;
67776;SDS011;54576;52.020;5.536;2022-07-30T04:46:13;10.85;;;6.15;;
67776;SDS011;54576;52.020;5.536;2022-07-30T04:48:39;15.77;;;6.28;;
67776;SDS011;54576;52.020;5.536;2022-07-30T04:51:05;15.82;;;6.97;;
67776;SDS011;54576;52.020;5.536;2022-07-30T04:53:46;16.58;;;6.47;;
67776;SDS011;54576;52.020;5.536;2022-07-30T04:56:14;14.57;;;6.80;;
67776;SDS011;54576;52.020;5.536;2022-07-30T04:58:42;13.75;;;7.30;;
67776;SDS011;54576;52.020;5.536;2022-07-30T05:01:09;12.35;;;7.00;;
67776;SDS011;54576;52.020;5.536;2022-07-30T05:03:36;14.27;;;7.93;;
67776;SDS011;54576;52.020;5.536;2022-07-30T05:06:04;15.25;;;8.32;;
67776;SDS011;54576;52.020;5.536;2022-07-30T05:08:30;18.05;;;7.50;;
67776;SDS011;54576;52.020;5.536;2022-07-30T05:10:56;14.35;;;7.50;;
67776;SDS011;54576;52.020;5.536;2022-07-30T05:13:21;12.65;;;7.18;;
67776;SDS011;54576;52.020;5.536;2022-07-30T05:15:47;14.68;;;6.38;;
67776;SDS011;54576;52.020;5.536;2022-07-30T05:18:13;22.52;;;8.73;;
67776;SDS011;54576;52.020;5.536;2022-07-30T05:20:39;13.45;;;6.72;;
67776;SDS011;54576;52.020;5.536;2022-07-30T05:23:04;13.38;;;6.57;;
67776;SDS011;54576;52.020;5.536;2022-07-30T05:25:30;13.52;;;7.32;;
67776;SDS011;54576;52.020;5.536;2022-07-30T05:27:56;21.83;;;6.90;;
67776;SDS011;54576;52.020;5.536;2022-07-30T05:30:22;16.80;;;6.25;;
67776;SDS011;54576;52.020;5.536;2022-07-30T05:32:51;15.80;;;5.95;;
67776;SDS011;54576;52.020;5.536;2022-07-30T05:35:17;18.27;;;5.95;;
67776;SDS011;54576;52.020;5.536;2022-07-30T05:37:43;19.88;;;6.43;;
67776;SDS011;54576;52.020;5.536;2022-07-30T05:40:09;8.82;;;5.75;;
67776;SDS011;54576;52.020;5.536;2022-07-30T05:42:35;12.63;;;6.03;;
67776;SDS011;54576;52.020;5.536;2022-07-30T05:45:01;13.43;;;5.57;;
67776;SDS011;54576;52.020;5.536;2022-07-30T05:47:26;17.10;;;6.00;;
67776;SDS011;54576;52.020;5.536;2022-07-30T05:49:52;11.23;;;5.65;;
67776;SDS011;54576;52.020;5.536;2022-07-30T05:52:17;11.68;;;4.88;;
67776;SDS011;54576;52.020;5.536;2022-07-30T05:54:43;25.70;;;5.03;;
67776;SDS011;54576;52.020;5.536;2022-07-30T05:57:09;17.25;;;5.32;;
67776;SDS011;54576;52.020;5.536;2022-07-30T05:59:35;14.88;;;4.90;;
67776;SDS011;54576;52.020;5.536;2022-07-30T06:02:00;13.18;;;4.78;;
67776;SDS011;54576;52.020;5.536;2022-07-30T06:04:27;14.07;;;4.40;;
67776;SDS011;54576;52.020;5.536;2022-07-30T06:06:53;12.48;;;4.95;;
67776;SDS011;54576;52.020;5.536;2022-07-30T06:09:19;17.27;;;4.82;;
67776;SDS011;54576;52.020;5.536;2022-07-30T06:11:45;15.30;;;4.40;;
67776;SDS011;54576;52.020;5.536;2022-07-30T06:14:10;17.90;;;4.82;;
67776;SDS011;54576;52.020;5.536;2022-07-30T06:16:36;17.25;;;4.85;;
67776;SDS011;54576;52.020;5.536;2022-07-30T06:19:01;12.77;;;4.78;;
67776;SDS011;54576;52.020;5.536;2022-07-30T06:21:27;18.92;;;5.18;;
67776;SDS011;54576;52.020;5.536;2022-07-30T06:23:53;12.63;;;4.68;;
67776;SDS011;54576;52.020;5.536;2022-07-30T06:26:19;14.30;;;4.30;;
67776;SDS011;54576;52.020;5.536;2022-07-30T06:28:45;18.88;;;4.68;;
67776;SDS011;54576;52.020;5.536;2022-07-30T06:31:10;16.58;;;4.82;;
67776;SDS011;54576;52.020;5.536;2022-07-30T06:33:36;14.68;;;3.80;;
67776;SDS011;54576;52.020;5.536;2022-07-30T06:36:02;10.60;;;3.67;;
67776;SDS011;54576;52.020;5.536;2022-07-30T06:38:28;13.82;;;4.00;;
67776;SDS011;54576;52.020;5.536;2022-07-30T06:40:54;9.45;;;3.70;;
67776;SDS011;54576;52.020;5.536;2022-07-30T06:43:20;7.20;;;3.53;;
67776;SDS011;54576;52.020;5.536;2022-07-30T06:45:45;11.45;;;4.28;;
67776;SDS011;54576;52.020;5.536;2022-07-30T06:48:11;11.35;;;3.88;;
67776;SDS011;54576;52.020;5.536;2022-07-30T06:50:37;12.60;;;3.60;;
67776;SDS011;54576;52.020;5.536;2022-07-30T06:53:02;12.15;;;3.65;;
67776;SDS011;54576;52.020;5.536;2022-07-30T06:55:28;22.08;;;3.75;;
67776;SDS011;54576;52.020;5.536;2022-07-30T06:57:53;12.48;;;3.67;;
67776;SDS011;54576;52.020;5.536;2022-07-30T07:00:19;14.38;;;3.00;;
67776;SDS011;54576;52.020;5.536;2022-07-30T07:02:45;10.50;;;3.08;;
67776;SDS011;54576;52.020;5.536;2022-07-30T07:05:10;11.93;;;3.08;;
67776;SDS011;54576;52.020;5.536;2022-07-30T07:07:36;18.77;;;3.58;;
67776;SDS011;54576;52.020;5.536;2022-07-30T07:10:02;14.05;;;3.25;;
67776;SDS011;54576;52.020;5.536;2022-07-30T07:12:28;14.57;;;2.90;;
67776;SDS011;54576;52.020;5.536;2022-07-30T07:14:53;19.60;;;3.67;;
67776;SDS011;54576;52.020;5.536;2022-07-30T07:17:19;9.82;;;2.85;;
67776;SDS011;54576;52.020;5.536;2022-07-30T07:19:44;9.60;;;2.60;;
67776;SDS011;54576;52.020;5.536;2022-07-30T07:22:10;12.30;;;3.03;;
67776;SDS011;54576;52.020;5.536;2022-07-30T07:24:36;9.32;;;2.30;;
67776;SDS011;54576;52.020;5.536;2022-07-30T07:27:01;15.60;;;2.70;;
67776;SDS011;54576;52.020;5.536;2022-07-30T07:29:27;10.35;;;2.20;;
67776;SDS011;54576;52.020;5.536;2022-07-30T07:31:53;8.65;;;2.10;;
67776;SDS011;54576;52.020;5.536;2022-07-30T07:34:18;4.88;;;1.90;;
67776;SDS011;54576;52.020;5.536;2022-07-30T07:36:44;11.38;;;2.35;;
67776;SDS011;54576;52.020;5.536;2022-07-30T07:39:09;14.77;;;2.78;;
67776;SDS011;54576;52.020;5.536;2022-07-30T07:41:38;6.95;;;2.83;;
67776;SDS011;54576;52.020;5.536;2022-07-30T07:44:04;6.47;;;2.00;;
67776;SDS011;54576;52.020;5.536;2022-07-30T07:46:30;5.97;;;2.13;;
67776;SDS011;54576;52.020;5.536;2022-07-30T07:48:56;7.60;;;2.53;;
67776;SDS011;54576;52.020;5.536;2022-07-30T07:51:22;6.45;;;2.00;;
67776;SDS011;54576;52.020;5.536;2022-07-30T07:53:47;10.27;;;3.03;;
67776;SDS011;54576;52.020;5.536;2022-07-30T07:56:13;6.00;;;1.95;;
67776;SDS011;54576;52.020;5.536;2022-07-30T07:58:39;6.40;;;2.00;;
67776;SDS011;54576;52.020;5.536;2022-07-30T08:01:05;10.90;;;2.10;;
67776;SDS011;54576;52.020;5.536;2022-07-30T08:03:30;5.03;;;2.03;;
67776;SDS011;54576;52.020;5.536;2022-07-30T08:05:56;8.80;;;2.25;;
67776;SDS011;54576;52.020;5.536;2022-07-30T08:08:22;7.55;;;2.00;;
67776;SDS011;54576;52.020;5.536;2022-07-30T08:10:47;6.85;;;2.63;;
67776;SDS011;54576;52.020;5.536;2022-07-30T08:13:15;11.77;;;3.10;;
67776;SDS011;54576;52.020;5.536;2022-07-30T08:15:41;7.20;;;2.17;;
67776;SDS011;54576;52.020;5.536;2022-07-30T08:18:06;3.90;;;1.95;;
67776;SDS011;54576;52.020;5.536;2022-07-30T08:20:32;3.88;;;2.10;;
67776;SDS011;54576;52.020;5.536;2022-07-30T08:22:59;7.43;;;2.45;;
67776;SDS011;54576;52.020;5.536;2022-07-30T08:25:25;11.68;;;2.20;;
67776;SDS011;54576;52.020;5.536;2022-07-30T08:27:51;8.57;;;2.25;;
67776;SDS011;54576;52.020;5.536;2022-07-30T08:30:17;8.88;;;2.47;;
67776;SDS011;54576;52.020;5.536;2022-07-30T08:32:43;6.28;;;1.90;;
67776;SDS011;54576;52.020;5.536;2022-07-30T08:35:08;6.80;;;2.20;;
67776;SDS011;54576;52.020;5.536;2022-07-30T08:37:34;8.27;;;1.95;;
67776;SDS011;54576;52.020;5.536;2022-07-30T08:40:01;12.23;;;2.45;;
67776;SDS011;54576;52.020;5.536;2022-07-30T08:42:28;4.68;;;2.25;;
67776;SDS011;54576;52.020;5.536;2022-07-30T08:44:55;7.50;;;2.63;;
67776;SDS011;54576;52.020;5.536;2022-07-30T08:47:22;9.52;;;2.50;;
67776;SDS011;54576;52.020;5.536;2022-07-30T08:49:54;8.65;;;2.28;;
67776;SDS011;54576;52.020;5.536;2022-07-30T08:52:25;7.85;;;2.30;;
67776;SDS011;54576;52.020;5.536;2022-07-30T08:54:52;5.07;;;2.42;;
67776;SDS011;54576;52.020;5.536;2022-07-30T08:57:18;10.75;;;2.40;;
67776;SDS011;54576;52.020;5.536;2022-07-30T08:59:44;8.15;;;2.75;;
67776;SDS011;54576;52.020;5.536;2022-07-30T09:02:10;8.30;;;2.38;;
67776;SDS011;54576;52.020;5.536;2022-07-30T09:04:35;8.77;;;2.20;;
67776;SDS011;54576;52.020;5.536;2022-07-30T09:07:01;9.55;;;1.67;;
67776;SDS011;54576;52.020;5.536;2022-07-30T09:09:27;6.07;;;2.60;;
67776;SDS011;54576;52.020;5.536;2022-07-30T09:11:52;6.20;;;2.50;;
67776;SDS011;54576;52.020;5.536;2022-07-30T09:14:18;5.05;;;2.20;;
67776;SDS011;54576;52.020;5.536;2022-07-30T09:16:44;5.50;;;1.80;;
67776;SDS011;54576;52.020;5.536;2022-07-30T09:19:11;6.60;;;1.60;;
67776;SDS011;54576;52.020;5.536;2022-07-30T09:21:53;5.45;;;1.67;;
67776;SDS011;54576;52.020;5.536;2022-07-30T09:24:25;4.80;;;1.50;;
67776;SDS011;54576;52.020;5.536;2022-07-30T09:29:26;2.20;;;1.55;;
67776;SDS011;54576;52.020;5.536;2022-07-30T09:34:23;4.15;;;1.58;;
67776;SDS011;54576;52.020;5.536;2022-07-30T09:36:55;4.22;;;1.63;;
67776;SDS011;54576;52.020;5.536;2022-07-30T09:39:29;10.00;;;2.45;;
67776;SDS011;54576;52.020;5.536;2022-07-30T09:41:56;7.03;;;2.03;;
67776;SDS011;54576;52.020;5.536;2022-07-30T09:44:25;6.45;;;1.80;;
67776;SDS011;54576;52.020;5.536;2022-07-30T09:46:52;5.68;;;1.75;;
67776;SDS011;54576;52.020;5.536;2022-07-30T09:49:18;4.93;;;1.75;;
67776;SDS011;54576;52.020;5.536;2022-07-30T09:51:45;3.60;;;1.45;;
67776;SDS011;54576;52.020;5.536;2022-07-30T09:54:11;10.00;;;1.90;;
67776;SDS011;54576;52.020;5.536;2022-07-30T09:56:37;7.80;;;2.00;;
67776;SDS011;54576;52.020;5.536;2022-07-30T09:59:04;6.25;;;1.73;;
67776;SDS011;54576;52.020;5.536;2022-07-30T10:01:49;2.80;;;1.67;;
67776;SDS011;54576;52.020;5.536;2022-07-30T10:04:22;7.28;;;1.70;;
67776;SDS011;54576;52.020;5.536;2022-07-30T10:06:48;4.97;;;2.05;;
67776;SDS011;54576;52.020;5.536;2022-07-30T10:09:23;3.95;;;1.80;;
67776;SDS011;54576;52.020;5.536;2022-07-30T10:11:53;8.00;;;1.95;;
67776;SDS011;54576;52.020;5.536;2022-07-30T10:14:31;12.57;;;1.90;;
67776;SDS011;54576;52.020;5.536;2022-07-30T10:16:58;6.75;;;2.10;;
67776;SDS011;54576;52.020;5.536;2022-07-30T10:19:26;7.32;;;1.67;;
67776;SDS011;54576;52.020;5.536;2022-07-30T10:21:52;9.95;;;1.98;;
67776;SDS011;54576;52.020;5.536;2022-07-30T10:24:22;5.78;;;1.83;;
67776;SDS011;54576;52.020;5.536;2022-07-30T10:26:49;3.03;;;1.45;;
67776;SDS011;54576;52.020;5.536;2022-07-30T10:29:18;2.42;;;1.35;;
67776;SDS011;54576;52.020;5.536;2022-07-30T10:31:45;5.18;;;1.70;;
67776;SDS011;54576;52.020;5.536;2022-07-30T10:34:12;8.90;;;1.70;;
67776;SDS011;54576;52.020;5.536;2022-07-30T10:36:49;2.38;;;1.45;;
67776;SDS011;54576;52.020;5.536;2022-07-30T10:39:19;4.53;;;1.42;;
67776;SDS011;54576;52.020;5.536;2022-07-30T10:47:08;5.00;;;1.30;;
67776;SDS011;54576;52.020;5.536;2022-07-30T10:49:38;3.17;;;1.30;;
67776;SDS011;54576;52.020;5.536;2022-07-30T10:52:04;2.75;;;1.50;;
67776;SDS011;54576;52.020;5.536;2022-07-30T11:02:17;4.28;;;1.20;;
67776;SDS011;54576;52.020;5.536;2022-07-30T11:04:47;5.85;;;1.52;;
67776;SDS011;54576;52.020;5.536;2022-07-30T11:09:45;2.90;;;1.02;;
67776;SDS011;54576;52.020;5.536;2022-07-30T11:12:11;4.72;;;1.38;;
67776;SDS011;54576;52.020;5.536;2022-07-30T11:17:12;3.63;;;1.10;;
67776;SDS011;54576;52.020;5.536;2022-07-30T11:22:34;2.40;;;1.25;;
67776;SDS011;54576;52.020;5.536;2022-07-30T11:25:05;7.28;;;1.13;;
67776;SDS011;54576;52.020;5.536;2022-07-30T11:27:42;5.35;;;1.40;;
67776;SDS011;54576;52.020;5.536;2022-07-30T11:35:28;9.00;;;1.88;;
67776;SDS011;54576;52.020;5.536;2022-07-30T11:37:58;6.78;;;1.50;;
67776;SDS011;54576;52.020;5.536;2022-07-30T11:40:33;3.40;;;1.08;;
67776;SDS011;54576;52.020;5.536;2022-07-30T11:45:51;9.43;;;1.50;;
67776;SDS011;54576;52.020;5.536;2022-07-30T11:48:29;2.97;;;1.05;;
67776;SDS011;54576;52.020;5.536;2022-07-30T11:50:57;3.05;;;1.27;;
67776;SDS011;54576;52.020;5.536;2022-07-30T11:53:23;3.22;;;1.20;;
67776;SDS011;54576;52.020;5.536;2022-07-30T11:55:56;3.75;;;1.40;;
67776;SDS011;54576;52.020;5.536;2022-07-30T11:58:24;6.05;;;1.55;;
67776;SDS011;54576;52.020;5.536;2022-07-30T12:00:57;3.45;;;1.50;;
67776;SDS011;54576;52.020;5.536;2022-07-30T12:03:25;7.05;;;1.48;;
67776;SDS011;54576;52.020;5.536;2022-07-30T12:05:53;7.30;;;1.95;;
67776;SDS011;54576;52.020;5.536;2022-07-30T12:08:19;10.05;;;1.42;;
67776;SDS011;54576;52.020;5.536;2022-07-30T12:10:56;4.47;;;1.40;;
67776;SDS011;54576;52.020;5.536;2022-07-30T12:13:24;4.05;;;1.50;;
67776;SDS011;54576;52.020;5.536;2022-07-30T12:15:50;7.18;;;1.30;;
67776;SDS011;54576;52.020;5.536;2022-07-30T12:18:26;4.80;;;1.35;;
67776;SDS011;54576;52.020;5.536;2022-07-30T12:20:54;4.63;;;1.20;;
67776;SDS011;54576;52.020;5.536;2022-07-30T12:23:20;4.18;;;1.48;;
67776;SDS011;54576;52.020;5.536;2022-07-30T12:25:45;1.35;;;1.10;;
67776;SDS011;54576;52.020;5.536;2022-07-30T12:28:17;3.90;;;1.40;;
67776;SDS011;54576;52.020;5.536;2022-07-30T12:30:51;4.07;;;1.23;;
67776;SDS011;54576;52.020;5.536;2022-07-30T12:33:18;6.25;;;1.25;;
67776;SDS011;54576;52.020;5.536;2022-07-30T12:35:51;7.65;;;1.15;;
67776;SDS011;54576;52.020;5.536;2022-07-30T12:38:18;5.55;;;1.52;;
67776;SDS011;54576;52.020;5.536;2022-07-30T12:41:01;4.70;;;1.38;;
67776;SDS011;54576;52.020;5.536;2022-07-30T12:43:42;2.45;;;0.98;;
67776;SDS011;54576;52.020;5.536;2022-07-30T12:46:20;4.88;;;1.75;;
67776;SDS011;54576;52.020;5.536;2022-07-30T12:48:47;6.35;;;1.33;;
67776;SDS011;54576;52.020;5.536;2022-07-30T12:51:17;2.88;;;1.50;;
67776;SDS011;54576;52.020;5.536;2022-07-30T12:53:43;10.68;;;1.58;;
67776;SDS011;54576;52.020;5.536;2022-07-30T12:56:10;4.03;;;1.25;;
67776;SDS011;54576;52.020;5.536;2022-07-30T12:58:37;4.82;;;1.20;;
67776;SDS011;54576;52.020;5.536;2022-07-30T13:01:03;4.35;;;1.30;;
67776;SDS011;54576;52.020;5.536;2022-07-30T13:03:29;6.57;;;1.48;;
67776;SDS011;54576;52.020;5.536;2022-07-30T13:06:09;5.00;;;1.27;;
67776;SDS011;54576;52.020;5.536;2022-07-30T13:08:47;6.85;;;1.55;;
67776;SDS011;54576;52.020;5.536;2022-07-30T13:11:13;4.32;;;1.23;;
67776;SDS011;54576;52.020;5.536;2022-07-30T13:13:39;9.82;;;1.40;;
67776;SDS011;54576;52.020;5.536;2022-07-30T13:16:06;5.32;;;1.55;;
67776;SDS011;54576;52.020;5.536;2022-07-30T13:18:33;4.13;;;1.30;;
67776;SDS011;54576;52.020;5.536;2022-07-30T13:21:00;4.68;;;1.10;;
67776;SDS011;54576;52.020;5.536;2022-07-30T13:23:27;2.97;;;1.02;;
67776;SDS011;54576;52.020;5.536;2022-07-30T13:25:53;7.00;;;1.30;;
67776;SDS011;54576;52.020;5.536;2022-07-30T13:28:19;3.90;;;1.30;;
67776;SDS011;54576;52.020;5.536;2022-07-30T13:30:46;7.68;;;1.52;;
67776;SDS011;54576;52.020;5.536;2022-07-30T13:33:12;4.32;;;1.50;;
67776;SDS011;54576;52.020;5.536;2022-07-30T13:35:38;3.42;;;1.33;;
67776;SDS011;54576;52.020;5.536;2022-07-30T13:38:04;13.27;;;1.70;;
67776;SDS011;54576;52.020;5.536;2022-07-30T13:40:30;4.13;;;1.30;;
67776;SDS011;54576;52.020;5.536;2022-07-30T13:42:57;2.85;;;1.20;;
67776;SDS011;54576;52.020;5.536;2022-07-30T13:45:26;7.22;;;1.20;;
67776;SDS011;54576;52.020;5.536;2022-07-30T13:47:52;1.92;;;1.30;;
67776;SDS011;54576;52.020;5.536;2022-07-30T13:50:18;2.00;;;1.02;;
67776;SDS011;54576;52.020;5.536;2022-07-30T13:52:44;4.53;;;1.20;;
67776;SDS011;54576;52.020;5.536;2022-07-30T13:55:10;2.20;;;1.30;;
67776;SDS011;54576;52.020;5.536;2022-07-30T13:57:36;4.43;;;1.25;;
67776;SDS011;54576;52.020;5.536;2022-07-30T14:00:05;6.47;;;1.30;;
67776;SDS011;54576;52.020;5.536;2022-07-30T14:02:32;5.55;;;1.33;;
67776;SDS011;54576;52.020;5.536;2022-07-30T14:04:58;2.60;;;1.30;;
67776;SDS011;54576;52.020;5.536;2022-07-30T14:07:25;8.25;;;1.20;;
67776;SDS011;54576;52.020;5.536;2022-07-30T14:09:50;9.98;;;1.45;;
67776;SDS011;54576;52.020;5.536;2022-07-30T14:12:16;9.23;;;1.40;;
67776;SDS011;54576;52.020;5.536;2022-07-30T14:14:42;5.65;;;1.17;;
67776;SDS011;54576;52.020;5.536;2022-07-30T14:17:08;9.57;;;2.13;;
67776;SDS011;54576;52.020;5.536;2022-07-30T14:19:33;4.72;;;1.65;;
67776;SDS011;54576;52.020;5.536;2022-07-30T14:21:59;3.85;;;1.50;;
67776;SDS011;54576;52.020;5.536;2022-07-30T14:24:25;6.90;;;1.70;;
67776;SDS011;54576;52.020;5.536;2022-07-30T14:26:51;6.60;;;1.33;;
67776;SDS011;54576;52.020;5.536;2022-07-30T14:29:17;4.78;;;1.73;;
67776;SDS011;54576;52.020;5.536;2022-07-30T14:31:42;6.05;;;1.33;;
67776;SDS011;54576;52.020;5.536;2022-07-30T14:34:08;9.90;;;1.40;;
67776;SDS011;54576;52.020;5.536;2022-07-30T14:36:34;6.07;;;1.48;;
67776;SDS011;54576;52.020;5.536;2022-07-30T14:39:01;3.97;;;1.40;;
67776;SDS011;54576;52.020;5.536;2022-07-30T14:41:28;6.30;;;1.30;;
67776;SDS011;54576;52.020;5.536;2022-07-30T14:43:54;3.13;;;1.38;;
67776;SDS011;54576;52.020;5.536;2022-07-30T14:46:20;8.50;;;1.67;;
67776;SDS011;54576;52.020;5.536;2022-07-30T14:48:46;8.77;;;2.03;;
67776;SDS011;54576;52.020;5.536;2022-07-30T14:51:12;10.32;;;1.58;;
67776;SDS011;54576;52.020;5.536;2022-07-30T14:53:38;7.20;;;1.20;;
67776;SDS011;54576;52.020;5.536;2022-07-30T14:56:04;13.88;;;1.75;;
67776;SDS011;54576;52.020;5.536;2022-07-30T14:58:30;4.30;;;1.42;;
67776;SDS011;54576;52.020;5.536;2022-07-30T15:00:55;8.52;;;1.42;;
67776;SDS011;54576;52.020;5.536;2022-07-30T15:03:21;9.30;;;1.55;;
67776;SDS011;54576;52.020;5.536;2022-07-30T15:05:46;4.00;;;1.02;;
67776;SDS011;54576;52.020;5.536;2022-07-30T15:08:12;6.47;;;1.98;;
67776;SDS011;54576;52.020;5.536;2022-07-30T15:10:38;5.97;;;1.35;;
67776;SDS011;54576;52.020;5.536;2022-07-30T15:13:04;4.38;;;1.30;;
67776;SDS011;54576;52.020;5.536;2022-07-30T15:15:30;2.38;;;1.33;;
67776;SDS011;54576;52.020;5.536;2022-07-30T15:17:57;7.85;;;1.30;;
67776;SDS011;54576;52.020;5.536;2022-07-30T15:20:22;1.48;;;1.10;;
67776;SDS011;54576;52.020;5.536;2022-07-30T15:22:48;3.42;;;1.38;;
67776;SDS011;54576;52.020;5.536;2022-07-30T15:25:14;3.25;;;1.30;;